createdAt,value
2022-10-23T00:04:52.618Z,18.90
2022-10-23T00:09:55.641Z,22.50
2022-10-23T00:14:58.717Z,25.50
2022-10-23T00:20:01.843Z,24.40
2022-10-23T00:25:07.401Z,19.20
2022-10-23T00:30:11.821Z,21.10
2022-10-23T00:35:15.034Z,23.00
2022-10-23T00:40:18.346Z,19.70
2022-10-23T00:45:27.192Z,24.00
2022-10-23T00:50:33.163Z,21.10
2022-10-23T00:55:38.723Z,15.90
2022-10-23T01:00:48.591Z,17.40
2022-10-23T01:06:08.900Z,23.60
2022-10-23T01:11:30.887Z,15.60
2022-10-23T01:16:52.794Z,20.20
2022-10-23T01:22:16.501Z,11.60
2022-10-23T01:27:41.292Z,19.10
2022-10-23T01:33:10.408Z,19.90
2022-10-23T01:38:33.383Z,20.00
2022-10-23T01:43:45.809Z,17.40
2022-10-23T01:48:53.973Z,16.30
2022-10-23T01:54:01.112Z,17.60
2022-10-23T01:59:11.203Z,15.70
2022-10-23T02:04:23.938Z,20.30
2022-10-23T02:09:27.658Z,15.70
2022-10-23T02:14:53.396Z,17.90
2022-10-23T02:20:17.389Z,20.80
2022-10-23T02:25:30.424Z,23.40
2022-10-23T02:30:37.828Z,18.10
2022-10-23T02:35:41.455Z,20.70
2022-10-23T02:40:47.225Z,20.00
2022-10-23T02:46:09.280Z,22.50
2022-10-23T02:51:21.388Z,21.80
2022-10-23T02:57:02.484Z,23.80
2022-10-23T03:02:25.602Z,23.40
2022-10-23T03:07:29.589Z,20.10
2022-10-23T03:12:32.793Z,22.20
2022-10-23T03:17:35.901Z,23.30
2022-10-23T03:22:40.347Z,22.20
2022-10-23T03:27:43.754Z,23.40
2022-10-23T03:32:46.755Z,26.10
2022-10-23T03:37:49.861Z,25.90
2022-10-23T03:42:52.984Z,65.70
2022-10-23T03:47:56.074Z,65.60
2022-10-23T03:52:59.395Z,33.20
2022-10-23T03:58:02.591Z,88.20
2022-10-23T04:03:05.819Z,30.30
2022-10-23T04:08:10.150Z,34.70
2022-10-23T04:13:13.244Z,65.90
2022-10-23T04:18:17.150Z,49.90
2022-10-23T04:23:20.997Z,39.20
2022-10-23T04:28:24.956Z,36.40
2022-10-23T04:33:29.251Z,61.10
2022-10-23T04:38:32.363Z,69.60
2022-10-23T04:43:35.874Z,38.60
2022-10-23T04:48:38.898Z,22.10
2022-10-23T04:53:41.877Z,28.70
2022-10-23T04:58:44.987Z,20.30
2022-10-23T05:03:48.195Z,24.70
2022-10-23T05:08:51.320Z,20.30
2022-10-23T05:13:54.320Z,24.70
2022-10-23T05:18:58.289Z,22.70
2022-10-23T05:24:02.340Z,26.00
2022-10-23T05:29:05.478Z,22.90
2022-10-23T05:34:11.279Z,22.00
2022-10-23T05:39:17.638Z,25.40
2022-10-23T05:44:21.438Z,29.10
2022-10-23T05:49:26.268Z,22.80
2022-10-23T05:54:29.288Z,23.90
2022-10-23T05:59:32.302Z,29.80
2022-10-23T06:04:36.327Z,27.10
2022-10-23T06:09:39.429Z,28.70
2022-10-23T06:14:42.436Z,31.30
2022-10-23T06:19:46.409Z,27.20
2022-10-23T06:24:49.393Z,27.50
2022-10-23T06:29:52.467Z,25.50
2022-10-23T06:34:55.576Z,16.20
2022-10-23T06:39:58.578Z,22.00
2022-10-23T06:45:04.848Z,17.40
2022-10-23T06:50:13.087Z,20.40
2022-10-23T06:55:19.746Z,20.70
2022-10-23T07:00:23.083Z,13.80
2022-10-23T07:05:26.106Z,19.00
2022-10-23T07:10:29.197Z,16.80
2022-10-23T07:15:32.613Z,24.40
2022-10-23T07:20:35.621Z,15.00
2022-10-23T07:25:38.620Z,18.60
2022-10-23T07:30:41.753Z,15.90
2022-10-23T07:35:46.466Z,18.00
2022-10-23T07:40:49.802Z,13.90
2022-10-23T07:45:54.255Z,13.50
2022-10-23T07:51:08.382Z,13.90
2022-10-23T07:56:18.566Z,17.70
2022-10-23T08:01:38.627Z,15.80
2022-10-23T08:06:41.968Z,14.60
2022-10-23T08:11:44.994Z,16.20
2022-10-23T08:16:48.434Z,17.50
2022-10-23T08:21:54.905Z,17.60
2022-10-23T08:26:58.898Z,20.10
2022-10-23T08:32:05.183Z,20.00
2022-10-23T08:37:08.184Z,18.50
2022-10-23T08:42:25.325Z,17.10
2022-10-23T08:47:44.703Z,19.80
2022-10-23T08:52:59.073Z,18.10
2022-10-23T08:58:11.103Z,16.00
2022-10-23T09:03:14.713Z,10.80
2022-10-23T09:08:44.545Z,7.90
2022-10-23T09:14:05.061Z,10.30
2022-10-23T09:19:17.830Z,8.80
2022-10-23T09:24:24.699Z,12.00
2022-10-23T09:29:36.171Z,11.50
2022-10-23T09:34:55.441Z,13.90
2022-10-23T09:40:34.221Z,10.50
2022-10-23T09:45:39.364Z,13.80
2022-10-23T09:50:53.633Z,22.50
2022-10-23T09:56:01.741Z,16.00
2022-10-23T10:01:05.978Z,18.70
2022-10-23T10:06:32.732Z,13.30
2022-10-23T10:11:44.266Z,17.30
2022-10-23T10:16:55.963Z,17.00
2022-10-23T10:22:36.247Z,18.60
2022-10-23T10:28:06.699Z,18.00
2022-10-23T10:33:31.915Z,20.10
2022-10-23T10:38:44.161Z,17.10
2022-10-23T10:44:09.406Z,17.70
2022-10-23T10:49:33.260Z,19.60
2022-10-23T10:55:14.142Z,20.50
2022-10-23T11:00:23.558Z,18.60
2022-10-23T11:05:34.280Z,18.80
2022-10-23T11:10:44.760Z,24.90
2022-10-23T11:15:48.457Z,20.60
2022-10-23T11:21:11.661Z,24.10
2022-10-23T11:26:36.786Z,18.80
2022-10-23T11:32:20.604Z,19.40
2022-10-23T11:37:27.032Z,19.30
2022-10-23T11:42:34.554Z,20.10
2022-10-23T11:47:42.838Z,15.90
2022-10-23T11:53:13.607Z,18.90
2022-10-23T11:58:33.825Z,17.90
2022-10-23T12:04:00.690Z,18.10
2022-10-23T12:09:22.334Z,23.60
2022-10-23T12:14:29.894Z,24.80
2022-10-23T12:19:50.639Z,22.50
2022-10-23T12:25:23.538Z,19.90
2022-10-23T12:30:51.318Z,21.80
2022-10-23T12:36:08.074Z,15.60
2022-10-23T12:41:18.690Z,24.20
2022-10-23T12:46:43.597Z,16.40
2022-10-23T12:52:14.633Z,19.40
2022-10-23T12:57:28.956Z,18.50
2022-10-23T13:02:33.286Z,17.30
2022-10-23T13:07:44.035Z,22.40
2022-10-23T13:13:05.947Z,16.20
2022-10-23T13:18:13.074Z,15.40
2022-10-23T13:23:35.121Z,16.80
2022-10-23T13:28:46.189Z,15.90
2022-10-23T13:34:19.257Z,20.00
2022-10-23T13:39:30.335Z,20.50
2022-10-23T13:44:33.323Z,20.40
2022-10-23T13:49:36.326Z,19.00
2022-10-23T13:54:39.326Z,17.50
2022-10-23T13:59:43.055Z,16.40
2022-10-23T14:04:47.460Z,16.90
2022-10-23T14:09:50.788Z,19.20
2022-10-23T14:14:54.209Z,16.70
2022-10-23T14:19:57.213Z,15.90
2022-10-23T14:25:00.357Z,16.80
2022-10-23T14:30:04.779Z,17.40
2022-10-23T14:35:08.607Z,23.00
2022-10-23T14:40:11.991Z,29.90
2022-10-23T14:45:15.047Z,22.50
2022-10-23T14:50:19.226Z,17.10
2022-10-23T14:55:22.436Z,20.40
2022-10-23T15:00:26.067Z,20.10
2022-10-23T15:05:29.157Z,18.80
2022-10-23T15:10:32.267Z,22.10
2022-10-23T15:15:35.377Z,22.00
2022-10-23T15:20:38.416Z,20.50
2022-10-23T15:25:42.305Z,24.20
2022-10-23T15:30:46.329Z,24.10
2022-10-23T15:35:50.433Z,23.50
2022-10-23T15:41:13.746Z,22.10
2022-10-23T15:46:16.745Z,23.90
2022-10-23T15:51:21.029Z,21.40
2022-10-23T15:56:25.863Z,23.50
2022-10-23T16:01:29.520Z,24.40
2022-10-23T16:06:32.957Z,25.40
2022-10-23T16:11:39.350Z,24.20
2022-10-23T16:16:42.864Z,21.90
2022-10-23T16:21:46.065Z,25.20
2022-10-23T16:26:53.342Z,27.10
2022-10-23T16:31:57.809Z,30.50
2022-10-23T16:37:00.933Z,30.50
2022-10-23T16:42:04.772Z,38.80
2022-10-23T16:47:07.956Z,28.10
2022-10-23T16:52:11.153Z,30.90
2022-10-23T16:57:14.272Z,31.00
2022-10-23T17:02:17.581Z,63.80
2022-10-23T17:12:25.418Z,81.60
2022-10-23T17:17:28.463Z,100.90
2022-10-23T17:22:31.844Z,85.60
2022-10-23T17:27:35.050Z,73.90
2022-10-23T17:32:38.262Z,68.50
2022-10-23T17:37:41.298Z,59.80
2022-10-23T17:42:44.692Z,66.40
2022-10-23T17:47:48.193Z,62.10
2022-10-23T17:52:51.600Z,59.60
2022-10-23T17:57:54.707Z,47.60
2022-10-23T18:02:57.822Z,61.20
2022-10-23T18:08:01.331Z,53.60
2022-10-23T18:13:04.435Z,41.00
2022-10-23T18:18:08.161Z,41.70
2022-10-23T18:23:11.468Z,50.40
2022-10-23T18:28:14.496Z,39.40
2022-10-23T18:33:18.705Z,30.30
2022-10-23T18:38:21.843Z,36.20
2022-10-23T18:43:42.450Z,32.60
2022-10-23T18:48:50.945Z,29.60
2022-10-23T18:53:55.106Z,38.30
2022-10-23T18:59:01.957Z,31.90
2022-10-23T19:04:06.578Z,33.60
2022-10-23T19:09:13.810Z,29.20
2022-10-23T19:14:18.365Z,34.50
2022-10-23T19:19:30.483Z,32.00
2022-10-23T19:24:51.141Z,31.40
2022-10-23T19:29:55.546Z,37.60
2022-10-23T19:35:01.390Z,38.70
2022-10-23T19:40:07.100Z,40.40
2022-10-23T19:45:14.821Z,42.00
2022-10-23T19:50:18.101Z,42.70
2022-10-23T19:55:21.206Z,47.80
2022-10-23T20:00:24.434Z,44.30
2022-10-23T20:05:27.830Z,45.60
2022-10-23T20:10:31.039Z,58.60
2022-10-23T20:15:38.223Z,61.00
2022-10-23T20:20:43.175Z,63.90
2022-10-23T20:25:46.202Z,68.50
2022-10-23T20:30:49.300Z,75.10
2022-10-23T20:35:53.053Z,76.00
2022-10-23T20:41:00.506Z,64.20
2022-10-23T20:46:06.270Z,59.00
2022-10-23T20:51:15.612Z,52.10
2022-10-23T20:56:32.446Z,44.00
2022-10-23T21:01:36.466Z,57.10
2022-10-23T21:06:57.484Z,49.70
2022-10-23T21:12:04.759Z,47.30
2022-10-23T21:17:09.171Z,49.20
2022-10-23T21:22:12.401Z,52.10
2022-10-23T21:27:15.592Z,34.80
2022-10-23T21:32:21.159Z,34.60
2022-10-23T21:37:25.798Z,29.30
2022-10-23T21:47:38.767Z,33.80
2022-10-23T21:52:42.267Z,25.20
2022-10-23T21:57:45.592Z,26.10
2022-10-23T22:02:49.134Z,24.60
2022-10-23T22:07:52.418Z,30.10
2022-10-23T22:12:55.522Z,23.10
2022-10-23T22:18:00.165Z,24.00
2022-10-23T22:23:03.183Z,23.60
2022-10-23T22:28:06.378Z,22.00
2022-10-23T22:33:09.392Z,22.60
2022-10-23T22:38:12.490Z,23.70
2022-10-23T22:43:15.496Z,22.70
2022-10-23T22:48:18.645Z,24.50
2022-10-23T22:53:21.703Z,19.80
2022-10-23T22:58:26.451Z,17.90
2022-10-23T23:03:29.630Z,17.80
2022-10-23T23:08:34.418Z,14.70
2022-10-23T23:13:37.406Z,23.00
2022-10-23T23:18:40.445Z,20.00
2022-10-23T23:23:43.720Z,31.50
2022-10-23T23:28:52.113Z,23.60
2022-10-23T23:33:55.869Z,19.20
2022-10-23T23:38:59.429Z,18.30
2022-10-23T23:44:02.495Z,23.80
2022-10-23T23:49:05.528Z,21.90
2022-10-23T23:54:08.809Z,24.60
2022-10-23T23:59:11.912Z,17.80
